地図

経路データ

SID SEASON NUMBER BASIN SUBBASIN NAME ISO_TIME NATURE LAT LON WMO_WIND WMO_PRES WMO_AGENCY TRACK_TYPE DIST2LAND LANDFALL IFLAG USA_AGENCY USA_ATCF_ID USA_LAT USA_LON USA_RECORD USA_STATUS USA_WIND USA_PRES USA_SSHS USA_R34_NE USA_R34_SE USA_R34_SW USA_R34_NW USA_R50_NE USA_R50_SE USA_R50_SW USA_R50_NW USA_R64_NE USA_R64_SE USA_R64_SW USA_R64_NW USA_POCI USA_ROCI USA_RMW USA_EYE TOKYO_LAT TOKYO_LON TOKYO_GRADE TOKYO_WIND TOKYO_PRES TOKYO_R50_DIR TOKYO_R50_LONG TOKYO_R50_SHORT TOKYO_R30_DIR TOKYO_R30_LONG TOKYO_R30_SHORT TOKYO_LAND CMA_LAT CMA_LON CMA_CAT CMA_WIND CMA_PRES HKO_LAT HKO_LON HKO_CAT HKO_WIND HKO_PRES NEWDELHI_LAT NEWDELHI_LON NEWDELHI_GRADE NEWDELHI_WIND NEWDELHI_PRES NEWDELHI_CI NEWDELHI_DP NEWDELHI_POCI REUNION_LAT REUNION_LON REUNION_TYPE REUNION_WIND REUNION_PRES REUNION_TNUM REUNION_CI REUNION_RMW REUNION_R34_NE REUNION_R34_SE REUNION_R34_SW REUNION_R34_NW REUNION_R50_NE REUNION_R50_SE REUNION_R50_SW REUNION_R50_NW REUNION_R64_NE REUNION_R64_SE REUNION_R64_SW REUNION_R64_NW BOM_LAT BOM_LON BOM_TYPE BOM_WIND BOM_PRES BOM_TNUM BOM_CI BOM_RMW BOM_R34_NE BOM_R34_SE BOM_R34_SW BOM_R34_NW BOM_R50_NE BOM_R50_SE BOM_R50_SW BOM_R50_NW BOM_R64_NE BOM_R64_SE BOM_R64_SW BOM_R64_NW BOM_ROCI BOM_POCI BOM_EYE BOM_POS_METHOD BOM_PRES_METHOD NADI_LAT NADI_LON NADI_CAT NADI_WIND NADI_PRES WELLINGTON_LAT WELLINGTON_LON WELLINGTON_WIND WELLINGTON_PRES DS824_LAT DS824_LON DS824_STAGE DS824_WIND DS824_PRES TD9636_LAT TD9636_LON TD9636_STAGE TD9636_WIND TD9636_PRES TD9635_LAT TD9635_LON TD9635_WIND TD9635_PRES TD9635_ROCI NEUMANN_LAT NEUMANN_LON NEUMANN_CLASS NEUMANN_WIND NEUMANN_PRES MLC_LAT MLC_LON MLC_CLASS MLC_WIND MLC_PRES USA_GUST BOM_GUST BOM_GUST_PER REUNION_GUST REUNION_GUST_PER USA_SEAHGT USA_SEARAD_NE USA_SEARAD_SE USA_SEARAD_SW USA_SEARAD_NW STORM_SPEED STORM_DIR
1929207N18115 1929 45 WP MM NOT_NAMED 1929-07-26 10:00:00 NR 17.5000 114.500 main 437 422 __________O___ -1 17.5000 114.500 4 3 307
1929207N18115 1929 45 WP MM NOT_NAMED 1929-07-26 12:00:00 NR 17.5678 114.410 main 422 407 __________P___ -1 17.5678 114.410 4 3 308
1929207N18115 1929 45 WP MM NOT_NAMED 1929-07-26 15:00:00 NR 17.6690 114.271 main 407 383 __________P___ -1 17.6690 114.271 4 3 306
1929207N18115 1929 45 WP MM NOT_NAMED 1929-07-26 18:00:00 NR 17.7692 114.122 main 383 368 __________P___ -1 17.7692 114.122 4 4 304
1929207N18115 1929 45 WP MM NOT_NAMED 1929-07-26 21:00:00 NR 17.8677 113.959 main 368 359 __________P___ -1 17.8677 113.959 4 4 302
1929207N18115 1929 45 WP MM NOT_NAMED 1929-07-26 22:00:00 NR 17.9000 113.900 main 359 344 __________O___ -1 17.9000 113.900 4 4 299
1929207N18115 1929 45 WP MM NOT_NAMED 1929-07-27 00:00:00 NR 17.9640 113.775 main 344 320 __________P___ -1 17.9640 113.775 4 4 297
1929207N18115 1929 45 WP MM NOT_NAMED 1929-07-27 03:00:00 NR 18.0599 113.569 main 320 288 __________P___ -1 18.0599 113.569 4 5 295
1929207N18115 1929 45 WP MM NOT_NAMED 1929-07-27 06:00:00 NR 18.1586 113.340 main 288 264 __________P___ -1 18.1586 113.340 4 5 294
1929207N18115 1929 45 WP MM NOT_NAMED 1929-07-27 09:00:00 NR 18.2633 113.089 main 264 255 __________P___ -1 18.2633 113.089 4 5 294
1929207N18115 1929 45 WP MM NOT_NAMED 1929-07-27 10:00:00 NR 18.3000 113.000 main 255 232 __________O___ -1 18.3000 113.000 4 6 294
1929207N18115 1929 45 WP MM NOT_NAMED 1929-07-27 12:00:00 NR 18.3750 112.817 main 232 199 __________P___ -1 18.3750 112.817 4 6 293
1929207N18115 1929 45 WP MM NOT_NAMED 1929-07-27 15:00:00 NR 18.4938 112.524 main 199 168 __________P___ -1 18.4938 112.524 4 6 293
1929207N18115 1929 45 WP MM NOT_NAMED 1929-07-27 18:00:00 NR 18.6200 112.216 main 168 130 __________P___ -1 18.6200 112.216 4 6 294
1929207N18115 1929 45 WP MM NOT_NAMED 1929-07-27 21:00:00 NR 18.7537 111.904 main 130 122 __________P___ -1 18.7537 111.904 4 7 295
1929207N18115 1929 45 WP MM NOT_NAMED 1929-07-27 22:00:00 NR 18.8000 111.800 main 122 99 __________O___ -1 18.8000 111.800 4 7 294
1929207N18115 1929 45 WP MM NOT_NAMED 1929-07-28 00:00:00 NR 18.8890 111.592 main 99 69 __________P___ -1 18.8890 111.592 4 7 295
1929207N18115 1929 45 WP MM NOT_NAMED 1929-07-28 03:00:00 NR 19.0288 111.280 main 69 35 __________P___ -1 19.0288 111.280 4 7 296
1929207N18115 1929 45 WP MM NOT_NAMED 1929-07-28 06:00:00 NR 19.1788 110.976 main 35 10 __________P___ -1 19.1788 110.976 4 6 299
1929207N18115 1929 45 WP MM NOT_NAMED 1929-07-28 09:00:00 NR 19.3421 110.690 main 10 0 __________P___ -1 19.3421 110.690 4 6 302
1929207N18115 1929 45 WP MM NOT_NAMED 1929-07-28 10:00:00 NR 19.4000 110.600 main 0 0 __________O___ -1 19.4000 110.600 4 6 306
1929207N18115 1929 45 WP MM NOT_NAMED 1929-07-28 12:00:00 NR 19.5217 110.433 main 0 0 __________P___ -1 19.5217 110.433 4 6 310
1929207N18115 1929 45 WP MM NOT_NAMED 1929-07-28 15:00:00 NR 19.7171 110.201 main 0 0 __________P___ -1 19.7171 110.201 4 6 314
1929207N18115 1929 45 WP MM NOT_NAMED 1929-07-28 18:00:00 NR 19.9222 109.983 main 0 0 __________P___ -1 19.9222 109.983 4 6 316
1929207N18115 1929 45 WP MM NOT_NAMED 1929-07-28 21:00:00 NR 20.1308 109.771 main 15 15 __________P___ -1 20.1308 109.771 4 6 316
1929207N18115 1929 45 WP MM NOT_NAMED 1929-07-28 22:00:00 NR 20.2000 109.700 main 20 20 __________O___ -1 20.2000 109.700 4 6 315
1929207N18115 1929 45 WP MM NOT_NAMED 1929-07-29 00:00:00 NR 20.3358 109.555 main 30 33 __________P___ -1 20.3358 109.555 4 6 315
1929207N18115 1929 45 WP MM NOT_NAMED 1929-07-29 03:00:00 NR 20.5397 109.338 main 52 47 __________P___ -1 20.5397 109.338 4 6 315
1929207N18115 1929 45 WP MM NOT_NAMED 1929-07-29 06:00:00 NR 20.7410 109.116 main 63 59 __________P___ -1 20.7410 109.116 4 6 313
1929207N18115 1929 45 WP MM NOT_NAMED 1929-07-29 09:00:00 NR 20.9366 108.882 main 63 54 __________P___ -1 20.9366 108.882 4 6 311
1929207N18115 1929 45 WP MM NOT_NAMED 1929-07-29 10:00:00 NR 21.0000 108.800 main 60 55 __________O___ -1 21.0000 108.800 4 6 312
1929207N18115 1929 45 WP MM NOT_NAMED 1929-07-29 12:00:00 NR 21.1433 108.631 main 56 22 __________P___ -1 21.1433 108.631 4 6 311
1929207N18115 1929 45 WP MM NOT_NAMED 1929-07-29 15:00:00 NR 21.3525 108.365 main 22 0 __________P___ -1 21.3525 108.365 4 6 308
1929207N18115 1929 45 WP MM NOT_NAMED 1929-07-29 18:00:00 NR 21.5352 108.086 main 0 0 __________P___ -1 21.5352 108.086 4 6 301
1929207N18115 1929 45 WP MM NOT_NAMED 1929-07-29 21:00:00 NR 21.6697 107.798 main 0 0 __________P___ -1 21.6697 107.798 4 6 295
1929207N18115 1929 45 WP MM NOT_NAMED 1929-07-29 22:00:00 NR 21.7000 107.700 main 0 0 __________O___ -1 21.7000 107.700 4 6 285
1929207N18115 1929 45 WP MM NOT_NAMED 1929-07-30 00:00:00 NR 21.7448 107.498 main 0 0 __________P___ -1 21.7448 107.498 4 6 277
1929207N18115 1929 45 WP MM NOT_NAMED 1929-07-30 03:00:00 NR 21.7618 107.188 main 0 0 __________P___ -1 21.7618 107.188 4 6 268
1929207N18115 1929 45 WP MM NOT_NAMED 1929-07-30 06:00:00 NR 21.7243 106.882 main 0 0 __________P___ -1 21.7243 106.882 4 6 257
1929207N18115 1929 45 WP MM NOT_NAMED 1929-07-30 09:00:00 NR 21.6383 106.591 main 0 0 __________P___ -1 21.6383 106.591 4 6 251
1929207N18115 1929 45 WP MM NOT_NAMED 1929-07-30 10:00:00 NR 21.6000 106.500 main 0 0 __________O___ -1 21.6000 106.500 4 6 242
1929207N18115 1929 45 WP MM NOT_NAMED 1929-07-30 12:00:00 NR 21.5105 106.328 main 0 0 __________P___ -1 21.5105 106.328 4 5 237
1929207N18115 1929 45 WP MM NOT_NAMED 1929-07-30 15:00:00 NR 21.3494 106.091 main 0 0 __________P___ -1 21.3494 106.091 4 5 231
1929207N18115 1929 45 WP MM NOT_NAMED 1929-07-30 18:00:00 NR 21.1650 105.874 main 0 0 __________P___ -1 21.1650 105.874 4 6 226
1929207N18115 1929 45 WP MM NOT_NAMED 1929-07-30 21:00:00 NR 20.9672 105.668 main 0 0 __________P___ -1 20.9672 105.668 4 6 224
1929207N18115 1929 45 WP MM NOT_NAMED 1929-07-30 22:00:00 NR 20.9000 105.600 main 0 __________O___ -1 20.9000 105.600 4 6 226

デジタル台風データ・検索

IBTrACS Databaseについて

本データベースは、米国NOAAが公開する1842年以降の世界の熱帯低気圧のベストトラックデータアーカイブInternational Best Track Archive for Climate Stewardship (IBTrACS)を、ウェブで閲覧しやすい形式に変換したものです。

最終更新日:2021-12-03